Time;durP1;ratioP1;P1;durP2;ratioP2;P2;SDS_P1;SDS_P2;PMS_P1;PMS_P2;Temp;Humidity;BMP_temperature;BMP_pressure;BME280_temperature;BME280_humidity;BME280_pressure;Samples;Min_cycle;Max_cycle;Signal;HPM_P1;HPM_P2
2022/11/25 00:02:17;;;;;;;27.60;4.68;;;7.20;99.90;;;;;;4993954;28;20129;-45
2022/11/25 00:04:44;;;;;;;20.38;4.88;;;7.10;99.90;;;;;;4993252;28;20058;-41
2022/11/25 00:07:12;;;;;;;23.40;5.10;;;7.20;99.90;;;;;;4989079;28;20494;-37
2022/11/25 00:09:39;;;;;;;21.73;5.22;;;7.10;99.90;;;;;;4991222;28;20488;-40
2022/11/25 00:12:06;;;;;;;27.77;5.30;;;7.10;99.90;;;;;;4990426;28;20046;-40
2022/11/25 00:14:32;;;;;;;17.80;5.00;;;7.20;99.90;;;;;;4996941;28;20117;-39
2022/11/25 00:16:59;;;;;;;24.63;4.72;;;7.10;99.90;;;;;;4975885;28;20051;-40
2022/11/25 00:19:26;;;;;;;29.45;5.53;;;7.20;99.90;;;;;;4994388;28;20482;-39
2022/11/25 00:21:53;;;;;;;24.73;5.10;;;7.20;99.90;;;;;;4976003;28;20509;-41
2022/11/25 00:24:21;;;;;;;23.55;5.38;;;7.20;99.90;;;;;;4990174;28;20078;-39
2022/11/25 00:26:48;;;;;;;27.05;5.43;;;7.20;99.90;;;;;;4976477;28;20051;-41
2022/11/25 00:29:14;;;;;;;24.98;5.65;;;7.20;99.90;;;;;;4991133;28;20129;-40
2022/11/25 00:31:41;;;;;;;35.10;5.28;;;7.30;99.90;;;;;;4994602;28;20537;-41
2022/11/25 00:34:11;;;;;;;23.20;5.35;;;7.30;99.90;;;;;;4994736;28;20097;-41
2022/11/25 00:36:38;;;;;;;21.65;4.72;;;7.30;99.90;;;;;;4977494;28;20081;-41
2022/11/25 00:39:06;;;;;;;22.33;4.95;;;7.30;99.90;;;;;;4992568;28;20042;-40
2022/11/25 00:44:38;;;;;;;24.30;5.70;;;7.40;99.90;;;;;;4976369;28;20062;-42
2022/11/25 00:47:07;;;;;;;24.73;5.65;;;7.40;99.90;;;;;;4992078;28;20046;-45
2022/11/25 00:49:33;;;;;;;33.38;6.63;;;7.30;99.90;;;;;;4979739;28;20055;-43
2022/11/25 00:52:00;;;;;;;22.90;5.45;;;7.40;99.90;;;;;;4970913;28;20143;-42
2022/11/25 00:54:27;;;;;;;22.33;5.20;;;7.40;99.90;;;;;;4992476;28;20078;-41
2022/11/25 00:56:55;;;;;;;29.58;5.65;;;7.40;99.90;;;;;;4983949;28;20078;-42
2022/11/25 00:59:22;;;;;;;23.10;5.70;;;7.40;99.90;;;;;;4972133;28;20108;-44
2022/11/25 01:01:49;;;;;;;22.38;5.57;;;7.40;99.90;;;;;;4971808;28;20054;-44
2022/11/25 01:04:16;;;;;;;27.55;5.93;;;7.40;99.90;;;;;;4992436;28;20077;-43
2022/11/25 01:06:42;;;;;;;25.10;5.10;;;7.40;99.90;;;;;;4976775;28;20544;-42
2022/11/25 01:09:10;;;;;;;23.40;5.47;;;7.40;99.90;;;;;;4975651;28;20141;-43
2022/11/25 01:11:37;;;;;;;23.23;4.70;;;7.40;99.90;;;;;;4976812;28;20085;-43
2022/11/25 01:14:05;;;;;;;25.20;6.15;;;7.40;99.90;;;;;;4992750;28;20085;-44
2022/11/25 01:16:32;;;;;;;31.60;5.60;;;7.40;99.90;;;;;;4991380;28;20133;-44
2022/11/25 01:18:59;;;;;;;24.48;4.95;;;7.40;99.90;;;;;;4969610;28;20042;-42
2022/11/25 01:21:26;;;;;;;24.70;5.63;;;7.40;99.90;;;;;;4991831;28;20069;-42
2022/11/25 01:23:53;;;;;;;28.13;5.55;;;7.50;99.90;;;;;;4991621;28;20053;-43
2022/11/25 01:26:21;;;;;;;26.65;5.20;;;7.40;99.90;;;;;;4992125;28;20105;-40
2022/11/25 01:28:48;;;;;;;26.05;5.72;;;7.50;99.90;;;;;;4975300;28;20081;-41
2022/11/25 01:31:17;;;;;;;20.55;5.25;;;7.50;99.90;;;;;;4992808;28;20471;-41
2022/11/25 01:33:44;;;;;;;29.40;5.85;;;7.60;99.90;;;;;;4991159;28;20059;-38
2022/11/25 01:36:12;;;;;;;27.80;5.63;;;7.50;99.90;;;;;;4988436;28;20546;-41
2022/11/25 01:38:39;;;;;;;24.58;4.70;;;7.60;99.90;;;;;;4992792;28;20129;-41
2022/11/25 01:41:06;;;;;;;24.13;5.28;;;7.60;99.90;;;;;;4992251;28;20521;-39
2022/11/25 01:43:33;;;;;;;30.25;5.05;;;7.60;99.90;;;;;;4990874;28;20140;-40
2022/11/25 01:46:02;;;;;;;20.65;4.43;;;7.60;99.90;;;;;;4974344;28;20065;-40
2022/11/25 01:48:35;;;;;;;27.20;5.40;;;7.60;99.90;;;;;;4987590;28;20054;-42
2022/11/25 01:51:02;;;;;;;24.85;6.05;;;7.70;99.90;;;;;;4975956;28;20133;-43
2022/11/25 01:53:29;;;;;;;23.23;5.05;;;7.70;99.90;;;;;;4991864;28;21062;-40
2022/11/25 01:55:56;;;;;;;21.40;5.13;;;7.70;99.90;;;;;;4975174;28;20418;-39
2022/11/25 01:58:25;;;;;;;22.83;5.53;;;7.70;99.90;;;;;;4970436;28;20059;-39
2022/11/25 02:00:52;;;;;;;27.23;5.55;;;7.70;99.90;;;;;;4990554;28;20437;-39
2022/11/25 02:03:20;;;;;;;27.17;5.63;;;7.70;99.90;;;;;;4992109;28;20062;-40
2022/11/25 02:05:50;;;;;;;32.35;6.47;;;7.70;99.90;;;;;;4991202;28;20046;-39
2022/11/25 02:08:17;;;;;;;26.08;5.43;;;7.70;99.90;;;;;;4991401;28;20050;-39
2022/11/25 02:10:43;;;;;;;21.52;5.68;;;7.70;99.90;;;;;;4988083;28;20056;-39
2022/11/25 02:13:10;;;;;;;28.98;5.18;;;7.70;99.90;;;;;;4987287;28;20050;-39
2022/11/25 02:15:37;;;;;;;24.85;5.43;;;7.70;99.90;;;;;;4992700;28;20089;-40
2022/11/25 02:18:04;;;;;;;23.95;5.53;;;7.70;99.90;;;;;;4974726;28;20109;-40
2022/11/25 02:20:31;;;;;;;26.05;6.72;;;7.70;99.90;;;;;;4990916;28;20061;-39
2022/11/25 02:23:03;;;;;;;21.05;5.28;;;7.70;99.90;;;;;;4974680;28;20146;-39
2022/11/25 02:25:32;;;;;;;27.95;6.05;;;7.70;99.90;;;;;;4991035;28;20053;-39
2022/11/25 02:28:00;;;;;;;27.48;6.05;;;7.70;99.90;;;;;;4990886;28;20277;-40
2022/11/25 02:30:27;;;;;;;21.20;5.90;;;7.70;99.90;;;;;;4972040;28;20078;-41
2022/11/25 02:32:53;;;;;;;23.77;6.45;;;7.70;99.90;;;;;;4990552;28;20065;-40
2022/11/25 02:35:28;;;;;;;31.35;5.82;;;7.70;99.90;;;;;;4973529;28;20069;-42
2022/11/25 02:37:56;;;;;;;30.27;6.85;;;7.70;99.90;;;;;;4974236;28;20132;-42
2022/11/25 02:40:23;;;;;;;28.52;7.13;;;7.70;99.90;;;;;;4991545;28;20482;-43
2022/11/25 02:42:51;;;;;;;26.80;7.05;;;7.70;99.90;;;;;;4991491;28;20078;-42
2022/11/25 02:45:18;;;;;;;29.27;6.75;;;7.70;99.90;;;;;;4991699;28;20108;-40
2022/11/25 02:47:45;;;;;;;29.48;6.78;;;7.70;99.90;;;;;;4971217;28;20089;-43
2022/11/25 02:50:12;;;;;;;34.65;7.07;;;7.70;99.90;;;;;;4973957;28;20111;-42
2022/11/25 02:52:39;;;;;;;35.33;7.68;;;7.70;99.90;;;;;;4992185;28;20061;-42
2022/11/25 02:55:07;;;;;;;30.63;7.70;;;7.70;99.90;;;;;;4990721;28;20205;-43
2022/11/25 02:57:33;;;;;;;26.58;7.13;;;7.70;99.90;;;;;;4974567;28;20046;-41
2022/11/25 03:00:02;;;;;;;32.00;6.88;;;7.70;99.90;;;;;;4976534;28;20081;-41
2022/11/25 03:02:29;;;;;;;33.15;7.30;;;7.70;99.90;;;;;;4977000;28;20540;-43
2022/11/25 03:04:55;;;;;;;40.72;8.27;;;7.70;99.90;;;;;;4977636;28;20055;-44
2022/11/25 03:07:22;;;;;;;34.85;7.30;;;7.80;99.90;;;;;;4994909;28;20491;-42
2022/11/25 03:09:49;;;;;;;27.73;7.43;;;7.80;99.90;;;;;;4992682;28;20794;-43
2022/11/25 03:12:18;;;;;;;29.67;7.80;;;7.80;99.90;;;;;;4984691;28;20046;-41
2022/11/25 03:14:45;;;;;;;30.20;7.13;;;7.80;99.90;;;;;;4994205;28;20051;-40
2022/11/25 03:17:14;;;;;;;27.58;7.18;;;7.90;99.90;;;;;;4974327;28;20403;-41
2022/11/25 03:19:41;;;;;;;33.30;7.68;;;7.90;99.90;;;;;;4987234;28;20082;-40
2022/11/25 03:22:07;;;;;;;35.10;7.95;;;7.90;99.90;;;;;;4984038;28;20542;-42
2022/11/25 03:24:34;;;;;;;33.60;7.78;;;7.90;99.90;;;;;;4995114;28;20475;-41
2022/11/25 03:27:01;;;;;;;25.73;7.80;;;7.90;99.90;;;;;;4977427;28;20105;-40
2022/11/25 03:29:28;;;;;;;32.05;7.82;;;7.90;99.90;;;;;;4993904;28;20140;-41
2022/11/25 03:31:54;;;;;;;34.58;8.25;;;7.90;99.90;;;;;;4995007;28;20507;-40
2022/11/25 03:34:23;;;;;;;30.38;8.65;;;8.00;99.90;;;;;;4994666;28;20054;-40
2022/11/25 03:36:55;;;;;;;27.88;8.80;;;8.00;99.90;;;;;;4995691;28;20062;-43
2022/11/25 03:39:22;;;;;;;28.92;8.38;;;8.00;99.90;;;;;;4993467;28;20042;-40
2022/11/25 03:41:49;;;;;;;38.72;9.40;;;8.00;99.90;;;;;;4993525;28;20055;-43
2022/11/25 03:44:16;;;;;;;29.55;8.00;;;8.00;99.90;;;;;;4993879;28;20076;-41
2022/11/25 03:46:43;;;;;;;34.03;8.55;;;8.00;99.90;;;;;;4994577;28;20057;-41
2022/11/25 03:49:09;;;;;;;30.85;8.70;;;8.00;99.90;;;;;;4994526;28;20104;-40
2022/11/25 03:51:38;;;;;;;34.15;8.75;;;8.00;99.90;;;;;;4993768;28;20140;-41
2022/11/25 03:54:04;;;;;;;30.75;8.38;;;8.00;99.90;;;;;;4992944;28;20413;-42
2022/11/25 03:56:31;;;;;;;42.67;9.50;;;8.00;99.90;;;;;;4977365;28;20137;-43
2022/11/25 03:58:58;;;;;;;31.17;8.93;;;8.10;99.90;;;;;;4994142;28;20051;-41
2022/11/25 04:01:25;;;;;;;32.25;8.40;;;8.00;99.90;;;;;;4976424;28;20132;-41
2022/11/25 04:03:51;;;;;;;26.60;8.20;;;8.10;99.90;;;;;;4975903;28;20043;-38
2022/11/25 04:06:20;;;;;;;29.42;7.75;;;8.10;99.90;;;;;;4969554;28;20082;-41
2022/11/25 04:08:48;;;;;;;33.38;9.20;;;8.10;99.90;;;;;;4992497;28;20202;-43
2022/11/25 04:11:15;;;;;;;27.02;8.50;;;8.10;99.90;;;;;;4976569;28;20050;-42
2022/11/25 04:13:41;;;;;;;34.03;8.35;;;8.10;99.90;;;;;;4993613;28;20129;-41
2022/11/25 04:16:16;;;;;;;28.00;8.32;;;8.10;99.90;;;;;;4981876;28;20169;-41
2022/11/25 04:18:43;;;;;;;35.85;9.05;;;8.20;99.90;;;;;;4994390;28;20050;-43
2022/11/25 04:21:09;;;;;;;32.03;8.75;;;8.10;99.90;;;;;;4976771;28;20064;-42
2022/11/25 04:23:39;;;;;;;34.80;8.90;;;8.10;99.90;;;;;;4992051;28;20503;-40
2022/11/25 04:26:07;;;;;;;35.72;8.95;;;8.10;99.90;;;;;;4992414;28;20133;-40
2022/11/25 04:28:34;;;;;;;28.45;8.38;;;8.10;99.90;;;;;;4992116;28;20506;-41
2022/11/25 04:31:05;;;;;;;34.97;9.07;;;8.10;99.90;;;;;;4993441;28;20081;-41
2022/11/25 04:33:31;;;;;;;43.00;9.67;;;8.10;99.90;;;;;;4974396;28;20475;-39
2022/11/25 04:35:58;;;;;;;32.30;8.65;;;8.10;99.90;;;;;;4986536;28;20046;-39
2022/11/25 04:38:25;;;;;;;33.50;10.05;;;8.20;99.90;;;;;;4976062;28;20094;-40
2022/11/25 04:40:52;;;;;;;31.35;9.60;;;8.20;99.90;;;;;;4991722;28;20185;-38
2022/11/25 04:43:20;;;;;;;26.75;9.23;;;8.20;99.90;;;;;;4990958;28;20127;-38
2022/11/25 04:45:47;;;;;;;30.27;9.40;;;8.20;99.90;;;;;;4976345;28;20117;-41
2022/11/25 04:48:14;;;;;;;34.88;9.70;;;8.20;99.90;;;;;;4960520;28;20545;-37
2022/11/25 04:50:41;;;;;;;32.08;9.73;;;8.20;99.90;;;;;;4974394;28;20474;-39
2022/11/25 04:53:07;;;;;;;32.75;9.85;;;8.20;99.90;;;;;;4982577;28;20050;-40
2022/11/25 04:55:34;;;;;;;38.83;9.80;;;8.20;99.90;;;;;;4992122;28;20428;-38
2022/11/25 04:58:01;;;;;;;35.25;10.13;;;8.20;99.90;;;;;;4974676;28;20058;-39
2022/11/25 05:00:28;;;;;;;38.80;9.57;;;8.20;99.90;;;;;;4991570;28;20134;-38
2022/11/25 05:02:55;;;;;;;30.02;8.98;;;8.20;99.90;;;;;;4973553;28;20053;-36
2022/11/25 05:05:22;;;;;;;40.25;10.32;;;8.20;99.90;;;;;;4991582;28;20454;-38
2022/11/25 05:07:49;;;;;;;32.30;9.90;;;8.20;99.90;;;;;;4972218;28;20085;-39
2022/11/25 05:10:16;;;;;;;31.15;10.05;;;8.20;99.90;;;;;;4992129;28;20054;-38
2022/11/25 05:12:43;;;;;;;34.60;9.55;;;8.20;99.90;;;;;;4975064;28;20105;-39
2022/11/25 05:15:10;;;;;;;33.83;9.93;;;8.20;99.90;;;;;;4990164;28;20078;-39
2022/11/25 05:17:38;;;;;;;37.38;9.88;;;8.20;99.90;;;;;;4992837;28;20530;-39
2022/11/25 05:20:10;;;;;;;43.72;10.18;;;8.20;99.90;;;;;;4992685;28;20088;-39
2022/11/25 05:22:36;;;;;;;29.58;9.20;;;8.20;99.90;;;;;;4965854;28;20081;-39
2022/11/25 05:25:05;;;;;;;33.83;9.88;;;8.20;99.90;;;;;;4990945;28;20137;-40
2022/11/25 05:27:32;;;;;;;34.00;10.10;;;8.20;99.90;;;;;;4975465;28;20082;-40
2022/11/25 05:29:59;;;;;;;38.90;10.18;;;8.20;99.90;;;;;;4992371;28;20101;-38
2022/11/25 05:32:25;;;;;;;33.47;9.80;;;8.20;99.90;;;;;;4972838;28;20450;-39
2022/11/25 05:34:53;;;;;;;41.47;11.13;;;8.20;99.90;;;;;;4970397;28;20054;-39
2022/11/25 05:37:20;;;;;;;33.72;9.60;;;8.20;99.90;;;;;;4987090;28;20561;-40
2022/11/25 05:39:47;;;;;;;30.40;9.38;;;8.20;99.90;;;;;;4986416;28;20053;-38
2022/11/25 05:42:14;;;;;;;31.60;10.20;;;8.20;99.90;;;;;;4988426;28;20077;-39
2022/11/25 05:44:41;;;;;;;37.22;10.02;;;8.30;99.90;;;;;;4990658;28;20529;-39
2022/11/25 05:47:07;;;;;;;31.20;9.05;;;8.20;99.90;;;;;;4967693;28;20074;-38
2022/11/25 05:49:34;;;;;;;37.78;10.10;;;8.20;99.90;;;;;;4983847;28;20085;-38
2022/11/25 05:52:02;;;;;;;36.55;9.82;;;8.30;99.90;;;;;;4984956;28;20498;-39
2022/11/25 05:54:29;;;;;;;35.78;9.55;;;8.30;99.90;;;;;;4971184;28;20057;-39
2022/11/25 05:56:56;;;;;;;30.33;8.85;;;8.30;99.90;;;;;;4989473;28;20082;-38
2022/11/25 05:59:23;;;;;;;29.48;9.07;;;8.30;99.90;;;;;;4990933;28;20450;-38
2022/11/25 06:01:50;;;;;;;29.83;8.40;;;8.30;99.90;;;;;;4972086;28;20082;-39
2022/11/25 06:04:16;;;;;;;35.13;7.88;;;8.30;99.90;;;;;;4990174;28;20109;-39
2022/11/25 06:06:43;;;;;;;31.90;8.73;;;8.30;99.90;;;;;;4967668;28;20086;-39
2022/11/25 06:09:11;;;;;;;41.25;8.07;;;8.30;99.90;;;;;;4989937;28;20127;-40
2022/11/25 06:11:38;;;;;;;33.03;7.53;;;8.30;99.90;;;;;;4991869;28;20060;-40
2022/11/25 06:14:05;;;;;;;31.42;10.02;;;8.40;99.90;;;;;;4973181;28;20057;-39
2022/11/25 06:16:32;;;;;;;32.83;8.23;;;8.30;99.90;;;;;;4987873;28;20399;-40
2022/11/25 06:18:59;;;;;;;28.20;7.65;;;8.40;99.90;;;;;;4986300;28;20054;-39
2022/11/25 06:21:26;;;;;;;25.40;6.70;;;8.40;99.90;;;;;;4977509;28;20082;-40
2022/11/25 06:23:52;;;;;;;25.88;6.75;;;8.40;99.90;;;;;;4972844;28;20050;-40
2022/11/25 06:26:21;;;;;;;23.73;5.70;;;8.40;99.90;;;;;;4974332;28;20092;-39
2022/11/25 06:28:49;;;;;;;22.90;5.68;;;8.40;99.90;;;;;;4990366;28;20118;-38
2022/11/25 06:31:17;;;;;;;23.90;5.82;;;8.40;99.90;;;;;;4990921;28;20058;-38
2022/11/25 06:33:46;;;;;;;22.92;5.75;;;8.40;99.90;;;;;;4977172;28;20133;-39
2022/11/25 06:36:16;;;;;;;26.55;5.55;;;8.40;99.90;;;;;;4960799;28;20105;-39
2022/11/25 06:38:42;;;;;;;25.15;6.05;;;8.40;99.90;;;;;;4992848;28;20061;-40
2022/11/25 06:41:09;;;;;;;23.17;5.55;;;8.40;99.90;;;;;;4992670;28;20054;-39
2022/11/25 06:43:37;;;;;;;22.52;6.13;;;8.40;99.90;;;;;;4993861;28;20453;-40
2022/11/25 06:46:04;;;;;;;20.15;5.78;;;8.40;99.90;;;;;;4974203;28;20478;-39
2022/11/25 06:48:31;;;;;;;26.38;6.63;;;8.40;99.90;;;;;;4976518;28;20113;-38
2022/11/25 06:50:59;;;;;;;17.75;5.75;;;8.50;99.90;;;;;;4992425;28;20078;-40
2022/11/25 06:53:26;;;;;;;21.48;5.95;;;8.50;99.90;;;;;;4994596;28;20064;-38
2022/11/25 06:56:03;;;;;;;22.38;5.82;;;8.50;99.90;;;;;;4984822;28;20089;-39
2022/11/25 06:58:30;;;;;;;23.73;5.07;;;8.50;99.90;;;;;;4990438;28;20038;-38
2022/11/25 07:01:02;;;;;;;22.00;4.95;;;8.50;99.90;;;;;;4988997;28;20137;-38
2022/11/25 07:03:29;;;;;;;26.27;4.97;;;8.50;99.90;;;;;;4988883;28;20050;-39
2022/11/25 07:05:56;;;;;;;22.45;5.55;;;8.50;99.90;;;;;;4972825;28;20050;-40
2022/11/25 07:08:24;;;;;;;15.38;5.22;;;8.40;99.90;;;;;;4988095;28;20571;-39
2022/11/25 07:10:50;;;;;;;17.35;4.55;;;8.40;99.90;;;;;;4973059;28;20479;-39
2022/11/25 07:13:17;;;;;;;58.25;25.42;;;8.40;99.90;;;;;;4985312;28;20133;-40
2022/11/25 07:15:44;;;;;;;20.40;6.85;;;8.30;99.90;;;;;;4983200;28;20055;-37
2022/11/25 07:18:12;;;;;;;48.70;26.30;;;8.30;99.90;;;;;;4987211;28;20105;-39
2022/11/25 07:20:39;;;;;;;20.13;5.40;;;8.40;99.90;;;;;;4990417;28;20057;-39
2022/11/25 07:23:06;;;;;;;22.27;6.70;;;8.30;99.90;;;;;;4993423;28;20385;-40
2022/11/25 07:25:33;;;;;;;20.60;7.00;;;8.30;99.90;;;;;;4985131;28;20102;-39
2022/11/25 07:27:59;;;;;;;23.23;5.80;;;8.20;99.90;;;;;;4985488;28;20770;-36
2022/11/25 07:30:29;;;;;;;18.10;6.22;;;8.20;99.90;;;;;;4970168;28;20058;-40
2022/11/25 07:32:56;;;;;;;20.10;5.65;;;8.20;99.90;;;;;;4961443;28;20100;-38
2022/11/25 07:35:24;;;;;;;19.30;5.82;;;8.10;99.90;;;;;;4967873;28;20054;-39
2022/11/25 07:37:51;;;;;;;21.45;4.45;;;8.10;99.90;;;;;;4972120;28;20117;-37
2022/11/25 07:40:18;;;;;;;23.40;5.85;;;8.10;99.90;;;;;;4963337;28;20457;-39
2022/11/25 07:42:45;;;;;;;16.63;4.53;;;8.00;99.90;;;;;;4971168;28;20137;-38
2022/11/25 07:45:12;;;;;;;18.00;4.95;;;8.00;99.90;;;;;;4955951;28;20059;-39
2022/11/25 07:47:39;;;;;;;31.45;11.48;;;8.00;99.90;;;;;;4971792;28;20161;-39
2022/11/25 07:50:07;;;;;;;20.23;4.90;;;8.00;99.90;;;;;;4971296;28;20106;-37
2022/11/25 07:52:37;;;;;;;16.92;5.20;;;8.00;99.90;;;;;;4971060;28;20050;-37
2022/11/25 07:55:04;;;;;;;15.88;4.30;;;8.00;99.90;;;;;;4972591;28;20049;-38
2022/11/25 07:57:31;;;;;;;18.55;4.55;;;8.00;99.90;;;;;;4969376;28;20384;-39
2022/11/25 07:59:57;;;;;;;21.60;9.40;;;8.00;99.90;;;;;;4967575;28;20110;-40
2022/11/25 08:02:24;;;;;;;20.52;4.75;;;8.00;99.90;;;;;;4965984;28;20127;-38
2022/11/25 08:04:51;;;;;;;33.67;16.48;;;8.00;99.90;;;;;;4964243;28;20050;-40
2022/11/25 08:07:18;;;;;;;28.80;10.77;;;8.00;99.90;;;;;;4947910;28;20114;-38
2022/11/25 08:09:46;;;;;;;35.03;14.75;;;7.90;99.90;;;;;;4952376;28;20090;-36
2022/11/25 08:12:13;;;;;;;25.02;11.15;;;8.00;99.90;;;;;;4964160;28;20086;-40
2022/11/25 08:14:39;;;;;;;18.00;5.75;;;7.90;99.90;;;;;;4967186;28;20043;-38
2022/11/25 08:17:06;;;;;;;25.35;5.22;;;7.90;99.90;;;;;;4968724;28;20082;-38
2022/11/25 08:19:34;;;;;;;19.42;6.50;;;7.90;99.90;;;;;;4962015;28;20051;-39
2022/11/25 08:22:01;;;;;;;19.67;6.97;;;7.90;99.90;;;;;;4969944;28;20055;-39
2022/11/25 08:24:28;;;;;;;21.25;7.85;;;7.90;99.90;;;;;;4952041;28;20078;-37
2022/11/25 08:26:57;;;;;;;20.58;5.95;;;7.90;99.90;;;;;;4962296;28;20078;-38
2022/11/25 08:29:24;;;;;;;22.85;6.25;;;7.90;99.90;;;;;;4964682;28;20058;-41
2022/11/25 08:31:51;;;;;;;25.92;7.43;;;8.00;99.90;;;;;;4968252;28;20129;-39
2022/11/25 08:34:19;;;;;;;20.33;6.18;;;8.00;99.90;;;;;;4953504;28;20115;-37
2022/11/25 08:36:46;;;;;;;19.35;6.05;;;8.00;99.90;;;;;;4952167;28;20410;-40
2022/11/25 08:39:12;;;;;;;19.45;5.57;;;8.10;99.90;;;;;;4950928;28;20117;-37
2022/11/25 08:41:39;;;;;;;15.77;6.40;;;8.00;99.90;;;;;;4968464;28;20046;-39
2022/11/25 08:44:08;;;;;;;21.95;6.70;;;8.10;99.90;;;;;;4971049;28;20047;-39
2022/11/25 08:46:36;;;;;;;19.10;5.90;;;8.10;99.90;;;;;;4969285;28;20054;-39
2022/11/25 08:49:03;;;;;;;17.83;6.03;;;8.20;99.90;;;;;;4952031;28;20505;-38
2022/11/25 08:51:31;;;;;;;18.98;5.88;;;8.20;99.90;;;;;;4947639;28;20515;-37
2022/11/25 08:53:58;;;;;;;19.65;5.65;;;8.30;99.90;;;;;;4968494;28;20042;-37
2022/11/25 08:56:25;;;;;;;18.50;6.32;;;8.30;99.90;;;;;;4969545;28;20055;-39
2022/11/25 08:58:52;;;;;;;17.20;5.85;;;8.30;99.90;;;;;;4968373;28;20407;-39
2022/11/25 09:01:21;;;;;;;17.90;5.72;;;8.30;99.90;;;;;;4952180;28;20074;-37
2022/11/25 09:03:49;;;;;;;19.13;6.65;;;8.30;99.90;;;;;;4971566;28;20337;-38
2022/11/25 09:06:17;;;;;;;17.13;6.30;;;8.30;99.90;;;;;;4970514;28;20062;-39
2022/11/25 09:08:43;;;;;;;18.92;6.75;;;8.40;99.90;;;;;;4969849;28;20633;-37
2022/11/25 09:11:10;;;;;;;23.17;6.93;;;8.40;99.90;;;;;;4953993;28;20163;-39
2022/11/25 09:13:37;;;;;;;20.88;6.00;;;8.50;99.90;;;;;;4963507;28;20102;-37
2022/11/25 09:16:04;;;;;;;28.45;7.13;;;8.50;99.90;;;;;;4967600;28;20046;-39
2022/11/25 09:18:34;;;;;;;26.85;9.88;;;8.60;99.90;;;;;;4970181;28;20411;-38
2022/11/25 09:21:00;;;;;;;23.70;10.05;;;8.70;99.90;;;;;;4970820;28;20567;-38
2022/11/25 09:23:27;;;;;;;21.58;8.38;;;8.70;99.90;;;;;;4967350;28;20078;-39
2022/11/25 09:25:54;;;;;;;14.60;6.20;;;8.70;99.90;;;;;;4963434;28;20138;-40
2022/11/25 09:28:21;;;;;;;18.45;6.32;;;8.80;99.90;;;;;;4965331;28;20137;-39
2022/11/25 09:30:48;;;;;;;19.85;5.57;;;8.90;99.90;;;;;;4963807;28;20475;-37
2022/11/25 09:33:15;;;;;;;19.67;6.15;;;8.90;99.90;;;;;;4961027;28;20074;-39
2022/11/25 09:35:43;;;;;;;14.77;6.15;;;9.00;99.90;;;;;;4953386;28;20059;-38
2022/11/25 09:38:10;;;;;;;13.52;6.22;;;9.10;99.90;;;;;;4971627;28;20078;-38
2022/11/25 09:40:42;;;;;;;15.45;5.65;;;9.10;99.90;;;;;;4971784;28;20097;-39
2022/11/25 09:48:58;;;;;;;13.68;4.70;;;9.30;99.90;;;;;;4940494;28;20142;-39
2022/11/25 09:51:31;;;;;;;13.18;4.53;;;9.30;99.90;;;;;;4955377;28;20063;-39
2022/11/25 09:54:00;;;;;;;18.92;5.43;;;9.40;99.90;;;;;;4971529;28;20514;-40
2022/11/25 09:56:31;;;;;;;12.20;4.65;;;9.40;99.90;;;;;;4966796;28;20380;-40
2022/11/25 09:59:01;;;;;;;13.25;5.18;;;9.50;99.90;;;;;;4958644;28;20422;-40
2022/11/25 10:01:29;;;;;;;16.65;5.43;;;9.50;99.90;;;;;;4955569;28;20231;-40
2022/11/25 10:03:57;;;;;;;11.85;4.63;;;9.60;99.90;;;;;;4955250;28;20455;-38
2022/11/25 10:06:25;;;;;;;16.23;5.25;;;9.60;99.90;;;;;;4954378;28;20434;-40
2022/11/25 10:08:55;;;;;;;11.82;4.50;;;9.70;99.90;;;;;;4970414;28;20047;-39
2022/11/25 10:11:26;;;;;;;13.73;4.45;;;9.70;99.90;;;;;;4948997;28;20059;-40
2022/11/25 10:13:54;;;;;;;;;;;9.80;99.90;;;;;;4971816;28;20055;-37
2022/11/25 10:16:32;;;;;;;11.35;4.00;;;9.80;99.90;;;;;;4953890;28;20008;-39
2022/11/25 10:19:00;;;;;;;9.68;4.20;;;9.80;99.90;;;;;;4967817;28;20050;-40
2022/11/25 10:21:27;;;;;;;11.68;4.53;;;9.90;99.90;;;;;;4951738;28;20082;-39
2022/11/25 10:23:55;;;;;;;14.65;4.00;;;9.80;99.90;;;;;;4950655;28;20275;-39
2022/11/25 10:26:24;;;;;;;23.02;4.85;;;10.00;99.90;;;;;;4951705;28;20102;-39
2022/11/25 10:28:54;;;;;;;20.33;8.50;;;10.00;99.90;;;;;;4968277;28;20082;-38
2022/11/25 10:31:23;;;;;;;12.50;4.20;;;10.00;99.90;;;;;;4967035;28;20506;-39
2022/11/25 10:33:51;;;;;;;15.10;3.83;;;10.00;99.90;;;;;;4956073;28;20087;-40
2022/11/25 10:36:19;;;;;;;14.77;4.55;;;10.10;99.90;;;;;;4967869;28;20051;-40
2022/11/25 10:38:50;;;;;;;11.52;4.50;;;10.10;99.90;;;;;;4951680;28;20172;-40
2022/11/25 10:41:21;;;;;;;14.20;4.43;;;10.10;99.90;;;;;;4966043;28;20082;-39
2022/11/25 10:43:47;;;;;;;12.73;4.20;;;10.20;99.90;;;;;;4967467;28;20130;-39
2022/11/25 10:46:19;;;;;;;15.23;4.75;;;10.20;99.90;;;;;;4952395;28;20102;-38
2022/11/25 10:48:52;;;;;;;14.60;3.67;;;10.30;99.90;;;;;;4964210;28;20082;-40
2022/11/25 10:51:32;;;;;;;13.82;3.10;;;10.30;99.90;;;;;;4953947;28;20138;-39
2022/11/25 10:54:09;;;;;;;17.90;4.13;;;10.30;99.90;;;;;;4969268;28;20057;-40
2022/11/25 10:56:44;;;;;;;15.75;3.60;;;10.40;99.90;;;;;;4967693;28;20086;-40
2022/11/25 10:59:14;;;;;;;14.07;3.30;;;10.40;99.90;;;;;;4968966;28;20491;-39
2022/11/25 11:01:41;;;;;;;13.88;3.53;;;10.40;99.90;;;;;;4969228;28;20046;-42
2022/11/25 11:04:13;;;;;;;12.85;3.80;;;10.50;99.90;;;;;;4952720;28;20130;-39
2022/11/25 11:06:41;;;;;;;11.13;3.60;;;10.50;99.90;;;;;;4957700;28;20102;-40
2022/11/25 11:09:35;;;;;;;15.63;3.28;;;10.50;99.90;;;;;;4961430;28;20196;-39
2022/11/25 11:12:21;;;;;;;13.65;3.92;;;10.50;99.90;;;;;;4960875;28;20123;-40
2022/11/25 11:14:47;;;;;;;14.45;3.60;;;10.60;99.90;;;;;;4970363;28;20075;-39
2022/11/25 11:17:32;;;;;;;12.27;3.75;;;10.60;99.90;;;;;;4969455;28;20055;-40
2022/11/25 11:20:06;;;;;;;12.38;3.67;;;10.50;99.90;;;;;;4975540;28;20055;-38
2022/11/25 11:22:33;;;;;;;18.95;4.30;;;10.40;99.90;;;;;;4962555;28;20054;-41
2022/11/25 11:25:07;;;;;;;13.70;3.33;;;10.30;99.90;;;;;;4995798;28;20090;-40
2022/11/25 11:27:37;;;;;;;16.60;3.92;;;10.30;99.90;;;;;;4978565;28;20114;-40
2022/11/25 11:30:09;;;;;;;12.90;3.88;;;10.30;99.90;;;;;;4988774;28;20055;-41
2022/11/25 11:32:35;;;;;;;13.95;3.97;;;10.40;99.90;;;;;;4974841;28;20086;-39
2022/11/25 11:35:05;;;;;;;15.45;3.95;;;10.50;99.90;;;;;;4958320;28;20447;-39
2022/11/25 11:37:39;;;;;;;15.80;3.60;;;10.50;99.90;;;;;;4965151;28;20087;-39
2022/11/25 11:40:30;;;;;;;13.73;3.55;;;10.60;99.90;;;;;;4939855;29;20134;-40
2022/11/25 11:43:21;;;;;;;19.55;3.88;;;10.70;99.90;;;;;;4955180;28;20463;-41
2022/11/25 11:45:57;;;;;;;13.13;3.45;;;10.70;99.90;;;;;;4948171;28;20071;-39
2022/11/25 11:48:27;;;;;;;15.70;3.45;;;10.70;99.90;;;;;;4952321;28;20245;-37
2022/11/25 11:51:00;;;;;;;14.32;3.50;;;10.80;99.90;;;;;;4955376;28;20523;-39
2022/11/25 11:53:30;;;;;;;13.98;2.80;;;10.80;99.90;;;;;;4944109;28;20138;-37
2022/11/25 11:56:00;;;;;;;16.58;3.30;;;10.80;99.90;;;;;;4954429;28;20085;-39
2022/11/25 11:58:47;;;;;;;12.15;3.88;;;10.90;99.90;;;;;;4937550;29;20131;-39
2022/11/25 12:01:23;;;;;;;16.88;3.20;;;10.90;99.90;;;;;;4937807;28;20079;-39
2022/11/25 12:03:55;;;;;;;15.60;3.10;;;10.90;99.90;;;;;;4950712;28;20052;-39
2022/11/25 12:06:22;;;;;;;18.23;3.28;;;11.00;99.90;;;;;;4953081;28;20043;-39
2022/11/25 12:08:50;;;;;;;17.65;3.65;;;11.00;99.90;;;;;;4956280;28;20051;-39
2022/11/25 12:11:24;;;;;;;17.92;3.72;;;10.90;99.90;;;;;;4954362;28;20162;-39
2022/11/25 12:13:54;;;;;;;12.82;3.33;;;10.90;99.90;;;;;;4938836;29;20393;-39
2022/11/25 12:16:24;;;;;;;13.23;3.65;;;10.80;99.90;;;;;;4948788;28;20046;-39
2022/11/25 12:19:03;;;;;;;15.00;3.20;;;10.80;99.90;;;;;;4935332;29;20051;-39
2022/11/25 12:21:38;;;;;;;19.10;3.80;;;10.80;99.90;;;;;;4953977;28;20054;-39
2022/11/25 12:24:06;;;;;;;21.67;3.58;;;10.70;99.90;;;;;;4953840;28;20129;-39
2022/11/25 12:26:39;;;;;;;14.18;3.50;;;10.70;99.90;;;;;;4957686;28;20411;-40
2022/11/25 12:29:10;;;;;;;15.25;3.33;;;10.70;99.90;;;;;;4953732;28;20047;-39
2022/11/25 12:31:38;;;;;;;15.13;3.07;;;10.80;99.90;;;;;;4956548;28;20106;-38
2022/11/25 12:34:07;;;;;;;19.20;3.40;;;10.80;99.90;;;;;;4971905;28;20767;-39
2022/11/25 12:36:35;;;;;;;17.75;3.47;;;10.80;99.90;;;;;;4954640;29;20062;-38
2022/11/25 12:39:03;;;;;;;21.00;3.30;;;10.80;99.90;;;;;;4955730;29;20478;-39
2022/11/25 12:41:35;;;;;;;14.30;3.58;;;10.70;99.90;;;;;;4935537;29;20055;-40
2022/11/25 12:44:04;;;;;;;15.60;3.67;;;10.70;99.90;;;;;;4936770;29;20437;-39
2022/11/25 12:46:36;;;;;;;18.45;3.40;;;10.80;99.90;;;;;;4949210;29;20110;-38
2022/11/25 12:49:03;;;;;;;;;;;10.80;99.90;;;;;;4955532;29;20047;-39
2022/11/25 12:51:41;;;;;;;17.80;4.18;;;10.90;99.90;;;;;;4954847;29;20347;-38
2022/11/25 12:54:16;;;;;;;14.18;3.45;;;10.90;99.90;;;;;;4955045;29;20051;-40
2022/11/25 12:56:52;;;;;;;17.20;3.42;;;11.00;99.90;;;;;;4954940;29;20047;-39
2022/11/25 12:59:35;;;;;;;16.40;3.13;;;11.00;99.90;;;;;;4953020;29;20487;-39
2022/11/25 13:02:27;;;;;;;14.07;2.95;;;11.00;99.90;;;;;;4953899;28;20051;-39